Greenhill, United Kingdom
Current Conditions -  °F | °C
As of 11:50 AM on Tuesday 27 Jan 2015 (Local Time) from EGWU Reporting Station
Broken Clouds Broken Clouds  
Wind Chill: 42°   Ceiling: 25000
Heat Index: 46°   Visibility: 6mi
Dew Point: 39°   Wind: 9mph
Humidity: 76%   Direction: 300°WNW
Pressure: 30.33"   Gusts: NA
Location:  51.58°N, 0.34°W
Report Text: EGWU 271150Z 30008KT 9999 SCT025 SCT110 BKN250 08/04 Q1027 NOSIG
Loading
Personal Weather Stations






























Interactive Weather Map New forecast layout! Learn more

10-Day Weather Forecast

Advertisements
Track Severe Weather on mobile